createdAt,value
2017-09-16T00:00:12.138Z,83.01
2017-09-16T00:00:52.681Z,82.34
2017-09-16T00:01:33.270Z,82.53
2017-09-16T00:02:13.865Z,83.11
2017-09-16T00:02:54.446Z,83.29
2017-09-16T00:03:35.036Z,83.29
2017-09-16T00:04:15.595Z,83.01
2017-09-16T00:04:56.249Z,82.82
2017-09-16T00:05:36.894Z,82.34
2017-09-16T00:06:17.486Z,82.91
2017-09-16T00:06:58.054Z,83.39
2017-09-16T00:07:38.620Z,83.01
2017-09-16T00:08:19.190Z,82.91
2017-09-16T00:08:59.745Z,83.29
2017-09-16T00:09:40.325Z,83.39
2017-09-16T00:10:20.893Z,83.11
2017-09-16T00:11:01.468Z,83.2
2017-09-16T00:11:42.046Z,82.91
2017-09-16T00:12:22.615Z,83.01
2017-09-16T00:13:03.181Z,82.43
2017-09-16T00:13:43.751Z,83.11
2017-09-16T00:14:24.564Z,83.29
2017-09-16T00:15:05.136Z,82.82
2017-09-16T00:15:45.724Z,82.43
2017-09-16T00:16:26.309Z,83.2
2017-09-16T00:17:06.862Z,82.82
2017-09-16T00:17:47.439Z,83.01
2017-09-16T00:18:27.999Z,82.82
2017-09-16T00:19:08.572Z,83.2
2017-09-16T00:19:49.160Z,83.11
2017-09-16T00:20:29.769Z,83.2
2017-09-16T00:21:10.371Z,83.2
2017-09-16T00:21:50.928Z,83.39
2017-09-16T00:22:31.504Z,82.91
2017-09-16T00:23:12.108Z,83.29
2017-09-16T00:23:52.693Z,83.11
2017-09-16T00:24:33.280Z,82.82
2017-09-16T00:25:13.870Z,82.72
2017-09-16T00:25:54.467Z,82.91
2017-09-16T00:26:35.074Z,82.82
2017-09-16T00:27:15.632Z,83.29
2017-09-16T00:27:56.236Z,83.11
2017-09-16T00:28:36.759Z,83.2
2017-09-16T00:29:17.322Z,83.2
2017-09-16T00:29:57.902Z,82.72
2017-09-16T00:30:38.533Z,83.2
2017-09-16T00:31:19.147Z,82.72
2017-09-16T00:31:59.731Z,82.91
2017-09-16T00:32:40.286Z,82.43
2017-09-16T00:33:20.866Z,83.2
2017-09-16T00:34:01.440Z,82.82
2017-09-16T00:34:41.994Z,82.78
2017-09-16T00:35:22.582Z,83.01
2017-09-16T00:36:03.139Z,82.72
2017-09-16T00:36:43.694Z,82.49
2017-09-16T00:37:24.302Z,82.82
2017-09-16T00:38:04.865Z,82.91
2017-09-16T00:38:45.423Z,82.53
2017-09-16T00:39:26.018Z,82.97
2017-09-16T00:40:06.595Z,82.91
2017-09-16T00:40:47.173Z,82.97
2017-09-16T00:41:27.733Z,83.06
2017-09-16T00:42:08.349Z,83.25
2017-09-16T00:42:48.893Z,83.16
2017-09-16T00:43:29.475Z,82.78
2017-09-16T00:44:10.105Z,82.78
2017-09-16T00:44:50.661Z,83.25
2017-09-16T00:45:31.215Z,83.16
2017-09-16T00:46:11.825Z,82.78
2017-09-16T00:46:52.385Z,82.68
2017-09-16T00:47:32.972Z,82.68
2017-09-16T00:48:13.517Z,82.78
2017-09-16T00:48:54.069Z,82.97
2017-09-16T00:49:34.637Z,82.78
2017-09-16T00:50:15.201Z,82.59
2017-09-16T00:50:55.813Z,82.68
2017-09-16T00:51:36.467Z,82.87
2017-09-16T00:52:17.060Z,82.78
2017-09-16T00:52:57.637Z,82.97
2017-09-16T00:53:38.191Z,82.87
2017-09-16T00:54:18.758Z,82.97
2017-09-16T00:54:59.325Z,83.25
2017-09-16T00:55:39.902Z,83.44
2017-09-16T00:56:20.509Z,83.35
2017-09-16T00:57:01.063Z,83.44
2017-09-16T00:57:41.619Z,83.35
2017-09-16T00:58:22.178Z,83.44
2017-09-16T00:59:02.737Z,83.25
2017-09-16T00:59:43.343Z,83.44
2017-09-16T01:00:23.960Z,83.16
2017-09-16T01:01:04.521Z,83.44
2017-09-16T01:01:45.093Z,83.06
2017-09-16T01:02:25.703Z,82.87
2017-09-16T01:03:06.276Z,83.54
2017-09-16T01:03:46.831Z,83.25
2017-09-16T01:04:27.421Z,82.97
2017-09-16T01:05:07.983Z,82.87
2017-09-16T01:05:48.553Z,82.68
2017-09-16T01:06:29.132Z,82.78
2017-09-16T01:07:09.740Z,82.78
2017-09-16T01:07:50.302Z,82.87
2017-09-16T01:08:30.884Z,83.06
2017-09-16T01:09:11.436Z,83.44
2017-09-16T01:09:52.000Z,82.97
2017-09-16T01:10:32.583Z,82.78
2017-09-16T01:11:13.170Z,82.78
2017-09-16T01:11:53.738Z,83.25
2017-09-16T01:12:34.294Z,82.78
2017-09-16T01:13:14.872Z,82.78
2017-09-16T01:13:55.467Z,83.44
2017-09-16T01:14:36.013Z,82.87
2017-09-16T01:15:16.579Z,82.97
2017-09-16T01:15:57.131Z,82.68
2017-09-16T01:16:37.686Z,82.78
2017-09-16T01:17:18.252Z,82.59
2017-09-16T01:17:58.827Z,82.78
2017-09-16T01:18:39.389Z,82.78
2017-09-16T01:19:19.972Z,82.97
2017-09-16T01:20:00.560Z,82.87
2017-09-16T01:20:41.179Z,83.16
2017-09-16T01:21:21.744Z,83.35
2017-09-16T01:22:02.326Z,83.25
2017-09-16T01:22:42.874Z,83.44
2017-09-16T01:23:23.460Z,83.83
2017-09-16T01:24:04.038Z,83.83
2017-09-16T01:24:44.616Z,83.64
2017-09-16T01:25:25.214Z,83.73
2017-09-16T01:26:05.905Z,83.64
2017-09-16T01:26:46.454Z,83.54
2017-09-16T01:27:27.017Z,83.73
2017-09-16T01:28:07.577Z,83.83
2017-09-16T01:28:48.371Z,83.35
2017-09-16T01:29:28.937Z,83.16
2017-09-16T01:30:09.559Z,82.78
2017-09-16T01:30:50.143Z,82.59
2017-09-16T01:31:30.715Z,82.78
2017-09-16T01:32:11.272Z,82.97
2017-09-16T01:32:51.837Z,82.97
2017-09-16T01:33:32.426Z,83.25
2017-09-16T01:34:12.983Z,83.16
2017-09-16T01:34:53.537Z,82.97
2017-09-16T01:35:34.124Z,83.06
2017-09-16T01:36:14.770Z,82.68
2017-09-16T01:36:55.363Z,82.68
2017-09-16T01:37:35.922Z,82.78
2017-09-16T01:38:16.489Z,82.49
2017-09-16T01:38:57.066Z,83.16
2017-09-16T01:39:37.638Z,82.97
2017-09-16T01:40:18.206Z,83.25
2017-09-16T01:40:58.799Z,82.87
2017-09-16T01:41:39.342Z,83.16
2017-09-16T01:42:19.907Z,83.25
2017-09-16T01:43:00.475Z,82.78
2017-09-16T01:43:41.041Z,82.87
2017-09-16T01:44:21.606Z,82.78
2017-09-16T01:45:02.184Z,82.87
2017-09-16T01:45:42.756Z,82.87
2017-09-16T01:46:23.314Z,83.83
2017-09-16T01:47:03.876Z,83.25
2017-09-16T01:47:44.442Z,83.16
2017-09-16T01:48:25.004Z,82.97
2017-09-16T01:49:05.597Z,82.97
2017-09-16T01:49:46.168Z,82.87
2017-09-16T01:50:26.759Z,83.06
2017-09-16T01:51:07.377Z,82.97
2017-09-16T01:51:47.962Z,83.44
2017-09-16T01:52:28.581Z,83.44
2017-09-16T01:53:09.193Z,83.31
2017-09-16T01:53:49.772Z,83.12
2017-09-16T01:54:30.337Z,83.44
2017-09-16T01:55:10.942Z,82.78
2017-09-16T01:55:51.515Z,82.73
2017-09-16T01:56:32.096Z,82.78
2017-09-16T01:57:12.680Z,82.73
2017-09-16T01:57:53.276Z,82.97
2017-09-16T01:58:33.842Z,83.44
2017-09-16T01:59:14.409Z,83.4
2017-09-16T01:59:54.980Z,83.69
2017-09-16T02:00:35.536Z,83.78
2017-09-16T02:01:16.131Z,83.02
2017-09-16T02:01:56.683Z,83.16
2017-09-16T02:02:37.240Z,83.02
2017-09-16T02:03:17.794Z,83.02
2017-09-16T02:03:58.360Z,83.4
2017-09-16T02:04:38.941Z,83.69
2017-09-16T02:05:19.517Z,83.4
2017-09-16T02:06:00.080Z,83.31
2017-09-16T02:06:40.630Z,83.21
2017-09-16T02:07:21.196Z,83.44
2017-09-16T02:08:01.748Z,83.59
2017-09-16T02:08:42.310Z,83.54
2017-09-16T02:09:22.884Z,83.4
2017-09-16T02:10:03.444Z,83.4
2017-09-16T02:10:44.007Z,83.4
2017-09-16T02:11:24.563Z,83.02
2017-09-16T02:12:05.211Z,82.73
2017-09-16T02:12:45.704Z,82.92
2017-09-16T02:13:26.263Z,83.5
2017-09-16T02:14:06.827Z,83.59
2017-09-16T02:14:47.395Z,83.5
2017-09-16T02:15:27.948Z,83.5
2017-09-16T02:16:08.516Z,83.59
2017-09-16T02:16:49.076Z,83.59
2017-09-16T02:17:29.659Z,83.69
2017-09-16T02:18:10.236Z,83.4
2017-09-16T02:18:50.806Z,83.59
2017-09-16T02:19:31.358Z,83.5
2017-09-16T02:20:11.918Z,83.59
2017-09-16T02:20:52.497Z,83.59
2017-09-16T02:21:33.093Z,83.5
2017-09-16T02:22:13.652Z,83.78
2017-09-16T02:22:54.218Z,83.78
2017-09-16T02:23:34.766Z,83.59
2017-09-16T02:24:15.333Z,83.97
2017-09-16T02:24:55.905Z,83.59
2017-09-16T02:25:36.463Z,83.88
2017-09-16T02:26:17.062Z,83.78
2017-09-16T02:26:57.642Z,83.78
2017-09-16T02:27:38.212Z,83.88
2017-09-16T02:28:18.785Z,83.5
2017-09-16T02:28:59.357Z,83.78
2017-09-16T02:29:39.956Z,83.4
2017-09-16T02:30:20.563Z,83.78
2017-09-16T02:31:01.164Z,83.78
2017-09-16T02:31:41.936Z,83.59
2017-09-16T02:32:22.490Z,83.59
2017-09-16T02:33:03.047Z,83.59
2017-09-16T02:33:43.614Z,83.69
2017-09-16T02:34:24.171Z,83.5
2017-09-16T02:35:04.739Z,83.4
2017-09-16T02:35:45.303Z,83.5
2017-09-16T02:36:25.871Z,83.59
2017-09-16T02:37:06.443Z,83.59
2017-09-16T02:37:46.999Z,83.5
2017-09-16T02:38:27.557Z,83.4
2017-09-16T02:39:08.115Z,83.59
2017-09-16T02:39:48.673Z,83.4
2017-09-16T02:40:29.237Z,83.59
2017-09-16T02:41:09.796Z,83.69
2017-09-16T02:41:50.359Z,83.4
2017-09-16T02:42:30.911Z,83.5
2017-09-16T02:43:11.490Z,83.12
2017-09-16T02:43:52.046Z,83.21
2017-09-16T02:44:32.611Z,83.31
2017-09-16T02:45:13.180Z,83.69
2017-09-16T02:45:53.753Z,83.59
2017-09-16T02:46:34.305Z,82.73
2017-09-16T02:47:14.870Z,82.73
2017-09-16T02:47:55.432Z,83.21
2017-09-16T02:48:35.990Z,83.02
2017-09-16T02:49:16.552Z,83.02
2017-09-16T02:49:57.108Z,83.21
2017-09-16T02:50:37.695Z,83.12
2017-09-16T02:51:18.248Z,83.12
2017-09-16T02:51:58.849Z,82.73
2017-09-16T02:52:39.408Z,82.64
2017-09-16T02:53:19.965Z,83.12
2017-09-16T02:54:00.565Z,83.4
2017-09-16T02:54:41.157Z,83.02
2017-09-16T02:55:21.711Z,83.21
2017-09-16T02:56:02.313Z,83.69
2017-09-16T02:56:42.854Z,83.59
2017-09-16T02:57:23.408Z,83.69
2017-09-16T02:58:03.965Z,83.5
2017-09-16T02:58:44.537Z,83.69
2017-09-16T02:59:25.103Z,83.78
2017-09-16T03:00:05.665Z,83.59
2017-09-16T03:00:46.242Z,83.5
2017-09-16T03:01:26.804Z,83.5
2017-09-16T03:02:07.363Z,83.4
2017-09-16T03:02:47.929Z,83.78
2017-09-16T03:03:28.513Z,83.4
2017-09-16T03:04:09.070Z,83.78
2017-09-16T03:04:49.634Z,83.88
2017-09-16T03:05:30.219Z,83.59
2017-09-16T03:06:10.783Z,83.12
2017-09-16T03:06:51.353Z,83.5
2017-09-16T03:07:31.919Z,83.69
2017-09-16T03:08:12.483Z,83.59
2017-09-16T03:08:53.033Z,83.59
2017-09-16T03:09:33.601Z,83.5
2017-09-16T03:10:14.160Z,83.4
2017-09-16T03:10:54.723Z,83.78
2017-09-16T03:11:35.291Z,83.78
2017-09-16T03:12:15.874Z,83.69
2017-09-16T03:12:56.436Z,83.59
2017-09-16T03:13:37.009Z,83.69
2017-09-16T03:14:17.566Z,83.88
2017-09-16T03:14:58.122Z,83.78
2017-09-16T03:15:38.688Z,84.07
2017-09-16T03:16:19.248Z,84.26
2017-09-16T03:16:59.840Z,83.88
2017-09-16T03:17:40.405Z,83.97
2017-09-16T03:18:20.976Z,83.97
2017-09-16T03:19:01.554Z,83.97
2017-09-16T03:19:42.124Z,83.88
2017-09-16T03:20:22.679Z,83.97
2017-09-16T03:21:03.244Z,84.16
2017-09-16T03:21:43.830Z,84.07
2017-09-16T03:22:24.405Z,83.97
2017-09-16T03:23:04.982Z,84.07
2017-09-16T03:23:45.589Z,83.97
2017-09-16T03:24:26.182Z,84.55
2017-09-16T03:25:06.763Z,83.88
2017-09-16T03:25:47.356Z,83.88
2017-09-16T03:26:27.914Z,84.36
2017-09-16T03:27:08.476Z,84.07
2017-09-16T03:27:49.081Z,84.74
2017-09-16T03:28:29.616Z,84.74
2017-09-16T03:29:10.193Z,84.64
2017-09-16T03:29:50.786Z,84.74
2017-09-16T03:30:31.363Z,84.16
2017-09-16T03:31:11.940Z,84.45
2017-09-16T03:31:52.527Z,84.16
2017-09-16T03:32:33.124Z,84.22
2017-09-16T03:33:13.718Z,84.36
2017-09-16T03:33:54.277Z,84.07
2017-09-16T03:34:35.021Z,84.55
2017-09-16T03:35:15.574Z,84.45
2017-09-16T03:35:56.139Z,84.6
2017-09-16T03:36:36.690Z,84.69
2017-09-16T03:37:17.251Z,84.31
2017-09-16T03:37:57.833Z,84.22
2017-09-16T03:38:38.431Z,84.41
2017-09-16T03:39:19.011Z,84.22
2017-09-16T03:39:59.601Z,84.41
2017-09-16T03:40:40.156Z,84.5
2017-09-16T03:41:20.733Z,84.6
2017-09-16T03:42:01.316Z,84.5
2017-09-16T03:42:41.898Z,84.5
2017-09-16T03:43:22.456Z,84.41
2017-09-16T03:44:03.039Z,84.5
2017-09-16T03:44:43.612Z,84.69
2017-09-16T03:45:24.174Z,84.69
2017-09-16T03:46:04.759Z,84.69
2017-09-16T03:46:45.300Z,84.6
2017-09-16T03:47:25.870Z,84.6
2017-09-16T03:48:06.456Z,84.6
2017-09-16T03:48:47.013Z,84.69
2017-09-16T03:49:27.578Z,84.41
2017-09-16T03:50:08.153Z,84.79
2017-09-16T03:50:48.732Z,84.6
2017-09-16T03:51:29.290Z,84.6
2017-09-16T03:52:09.844Z,84.69
2017-09-16T03:52:50.409Z,84.12
2017-09-16T03:53:30.969Z,84.22
2017-09-16T03:54:11.530Z,84.79
2017-09-16T03:54:52.091Z,84.5
2017-09-16T03:55:32.651Z,84.6
2017-09-16T03:56:13.215Z,84.6
2017-09-16T03:56:53.794Z,84.69
2017-09-16T03:57:34.363Z,84.31
2017-09-16T03:58:14.927Z,84.5
2017-09-16T03:58:55.489Z,84.79
2017-09-16T03:59:36.054Z,84.5
2017-09-16T04:00:16.625Z,84.41
2017-09-16T04:00:57.178Z,84.41
2017-09-16T04:01:37.754Z,84.5
2017-09-16T04:02:18.314Z,84.31
2017-09-16T04:02:58.880Z,84.41
2017-09-16T04:03:39.438Z,84.5
2017-09-16T04:04:20.019Z,84.69
2017-09-16T04:05:00.573Z,84.41
2017-09-16T04:05:41.133Z,84.5
2017-09-16T04:06:21.698Z,84.41
2017-09-16T04:07:02.254Z,84.79
2017-09-16T04:07:42.806Z,84.69
2017-09-16T04:08:23.366Z,84.69
2017-09-16T04:09:03.928Z,84.69
2017-09-16T04:09:44.516Z,84.6
2017-09-16T04:10:25.083Z,84.69
2017-09-16T04:11:05.636Z,84.69
2017-09-16T04:11:46.196Z,84.6
2017-09-16T04:12:26.756Z,84.41
2017-09-16T04:13:07.312Z,84.5
2017-09-16T04:13:47.899Z,84.5
2017-09-16T04:14:28.461Z,84.79
2017-09-16T04:15:09.027Z,84.5
2017-09-16T04:15:49.593Z,84.79
2017-09-16T04:16:30.146Z,84.69
2017-09-16T04:17:10.708Z,84.03
2017-09-16T04:17:51.272Z,84.22
2017-09-16T04:18:31.828Z,84.41
2017-09-16T04:19:12.401Z,84.31
2017-09-16T04:19:52.955Z,84.6
2017-09-16T04:20:33.541Z,84.79
2017-09-16T04:21:14.105Z,84.22
2017-09-16T04:21:54.680Z,84.31
2017-09-16T04:22:35.250Z,84.31
2017-09-16T04:23:15.808Z,84.6
2017-09-16T04:23:56.385Z,84.22
2017-09-16T04:24:36.936Z,83.84
2017-09-16T04:25:17.500Z,84.22
2017-09-16T04:25:58.066Z,83.84
2017-09-16T04:26:38.635Z,84.03
2017-09-16T04:27:19.190Z,83.84
2017-09-16T04:27:59.779Z,84.22
2017-09-16T04:28:40.331Z,84.41
2017-09-16T04:29:20.910Z,84.22
2017-09-16T04:30:01.467Z,84.22
2017-09-16T04:30:42.041Z,84.6
2017-09-16T04:31:22.620Z,84.69
2017-09-16T04:32:03.186Z,84.79
2017-09-16T04:32:43.749Z,84.31
2017-09-16T04:33:24.298Z,84.5
2017-09-16T04:34:04.867Z,84.5
2017-09-16T04:34:45.422Z,84.6
2017-09-16T04:35:25.981Z,84.5
2017-09-16T04:36:06.551Z,84.5
2017-09-16T04:36:47.130Z,84.31
2017-09-16T04:37:27.684Z,84.6
2017-09-16T04:38:08.273Z,84.6
2017-09-16T04:38:48.837Z,84.6
2017-09-16T04:39:29.390Z,84.6
2017-09-16T04:40:09.961Z,84.79
2017-09-16T04:40:50.523Z,84.5
2017-09-16T04:41:31.093Z,84.79
2017-09-16T04:42:11.682Z,84.22
2017-09-16T04:42:52.240Z,84.5
2017-09-16T04:43:32.791Z,84.69
2017-09-16T04:44:13.344Z,84.88
2017-09-16T04:44:53.913Z,84.79
2017-09-16T04:45:34.482Z,84.79
2017-09-16T04:46:15.061Z,84.6
2017-09-16T04:46:55.628Z,84.5
2017-09-16T04:47:36.178Z,84.69
2017-09-16T04:48:16.746Z,84.88
2017-09-16T04:48:57.320Z,84.88
2017-09-16T04:49:37.889Z,84.98
2017-09-16T04:50:18.450Z,84.69
2017-09-16T04:50:59.019Z,85.08
2017-09-16T04:51:39.579Z,85.36
2017-09-16T04:52:20.184Z,85.46
2017-09-16T04:53:00.751Z,85.46
2017-09-16T04:53:41.322Z,85.08
2017-09-16T04:54:21.894Z,85.08
2017-09-16T04:55:02.455Z,85.27
2017-09-16T04:55:43.043Z,85.17
2017-09-16T04:56:23.624Z,85.46
2017-09-16T04:57:04.183Z,85.36
2017-09-16T04:57:44.754Z,85.08
2017-09-16T04:58:25.316Z,84.98
2017-09-16T04:59:05.892Z,85.08
2017-09-16T04:59:46.452Z,85.08
2017-09-16T05:00:27.024Z,85.08
2017-09-16T05:01:07.574Z,84.98
2017-09-16T05:01:48.129Z,85.08
2017-09-16T05:02:28.693Z,85.08
2017-09-16T05:03:09.257Z,85.17
2017-09-16T05:03:49.825Z,85.36
2017-09-16T05:04:30.399Z,85.08
2017-09-16T05:05:10.959Z,85.08
2017-09-16T05:13:08.454Z,85.08
2017-09-16T05:13:49.008Z,84.88
2017-09-16T05:14:29.562Z,84.5
2017-09-16T05:15:10.118Z,84.5
2017-09-16T05:15:50.674Z,84.5
2017-09-16T05:16:31.231Z,85.08
2017-09-16T05:17:11.806Z,84.79
2017-09-16T05:17:52.346Z,84.79
2017-09-16T05:18:32.905Z,84.69
2017-09-16T05:19:13.468Z,85.08
2017-09-16T05:19:54.030Z,84.79
2017-09-16T05:20:34.582Z,84.88
2017-09-16T05:21:15.143Z,84.98
2017-09-16T05:21:55.690Z,84.98
2017-09-16T05:22:36.252Z,84.79
2017-09-16T05:23:16.817Z,84.88
2017-09-16T05:23:57.376Z,84.88
2017-09-16T05:24:37.936Z,85.08
2017-09-16T05:25:18.507Z,84.88
2017-09-16T05:25:59.068Z,84.41
2017-09-16T05:26:39.627Z,84.5
2017-09-16T05:27:20.185Z,84.79
2017-09-16T05:28:00.736Z,84.69
2017-09-16T05:28:41.294Z,85.27
2017-09-16T05:29:21.844Z,85.27
2017-09-16T05:30:02.401Z,85.46
2017-09-16T05:30:42.979Z,85.27
2017-09-16T05:31:23.533Z,85.36
2017-09-16T05:32:04.091Z,84.98
2017-09-16T05:32:44.655Z,85.17
2017-09-16T05:33:25.213Z,84.98
2017-09-16T05:34:05.781Z,85.17
2017-09-16T05:34:46.337Z,85.36
2017-09-16T05:35:26.888Z,84.88
2017-09-16T05:36:07.459Z,85.17
2017-09-16T05:36:48.039Z,84.79
2017-09-16T05:37:28.599Z,84.79
2017-09-16T05:38:09.161Z,84.98
2017-09-16T05:38:49.730Z,84.88
2017-09-16T05:39:30.275Z,84.6
2017-09-16T05:40:10.837Z,84.22
2017-09-16T05:40:51.392Z,84.5
2017-09-16T05:41:31.949Z,84.6
2017-09-16T05:42:12.503Z,84.5
2017-09-16T05:42:53.059Z,84.41
2017-09-16T05:43:33.627Z,84.5
2017-09-16T05:44:14.191Z,84.5
2017-09-16T05:44:54.748Z,84.69
2017-09-16T05:45:35.303Z,84.41
2017-09-16T05:46:15.863Z,84.69
2017-09-16T05:46:56.408Z,84.69
2017-09-16T05:47:36.965Z,84.79
2017-09-16T05:48:17.535Z,84.88
2017-09-16T05:48:58.089Z,84.6
2017-09-16T05:49:38.641Z,84.5
2017-09-16T05:50:19.193Z,84.41
2017-09-16T05:50:59.771Z,84.69
2017-09-16T05:51:40.334Z,84.69
2017-09-16T05:52:20.905Z,84.5
2017-09-16T05:53:01.461Z,84.88
2017-09-16T05:53:42.016Z,85.36
2017-09-16T05:54:22.591Z,84.98
2017-09-16T05:55:03.146Z,85.08
2017-09-16T05:55:43.695Z,85.17
2017-09-16T05:56:24.270Z,85.36
2017-09-16T05:57:04.839Z,85.46
2017-09-16T05:57:45.446Z,85.36
2017-09-16T05:58:25.988Z,85.08
2017-09-16T05:59:06.544Z,85.36
2017-09-16T05:59:47.100Z,85.17
2017-09-16T06:00:27.678Z,85.17
2017-09-16T06:01:08.232Z,85.46
2017-09-16T06:01:48.797Z,85.08
2017-09-16T06:02:29.386Z,85.08
2017-09-16T06:03:09.947Z,84.98
2017-09-16T06:03:50.518Z,85.36
2017-09-16T06:04:31.083Z,85.17
2017-09-16T06:05:11.664Z,84.88
2017-09-16T06:05:52.222Z,84.79
2017-09-16T06:06:32.791Z,84.6
2017-09-16T06:07:13.345Z,84.41
2017-09-16T06:07:53.912Z,84.69
2017-09-16T06:08:34.495Z,84.88
2017-09-16T06:09:15.079Z,85.08
2017-09-16T06:09:55.633Z,84.88
2017-09-16T06:10:36.198Z,84.88
2017-09-16T06:11:16.753Z,84.5
2017-09-16T06:11:57.320Z,84.88
2017-09-16T06:12:37.891Z,84.88
2017-09-16T06:13:18.458Z,84.22
2017-09-16T06:13:59.040Z,84.5
2017-09-16T06:14:39.602Z,84.5
2017-09-16T06:15:20.176Z,84.79
2017-09-16T06:16:00.751Z,84.6
2017-09-16T06:16:41.317Z,84.41
2017-09-16T06:17:21.904Z,84.79
2017-09-16T06:18:02.477Z,84.41
2017-09-16T06:18:43.041Z,84.69
2017-09-16T06:19:23.624Z,84.5
2017-09-16T06:20:04.270Z,84.88
2017-09-16T06:20:44.814Z,84.79
2017-09-16T06:21:25.371Z,84.31
2017-09-16T06:22:05.932Z,84.69
2017-09-16T06:22:46.482Z,84.69
2017-09-16T06:23:27.048Z,84.6
2017-09-16T06:24:07.599Z,84.69
2017-09-16T06:24:48.149Z,84.5
2017-09-16T06:25:28.724Z,84.69
2017-09-16T06:26:09.296Z,84.74
2017-09-16T06:26:49.858Z,84.55
2017-09-16T06:27:30.426Z,84.74
2017-09-16T06:28:10.989Z,84.74
2017-09-16T06:28:51.541Z,84.26
2017-09-16T06:29:32.093Z,84.55
2017-09-16T06:30:12.646Z,84.55
2017-09-16T06:30:53.214Z,84.16
2017-09-16T06:31:33.787Z,84.74
2017-09-16T06:32:14.335Z,84.55
2017-09-16T06:32:54.892Z,84.64
2017-09-16T06:33:35.451Z,84.64
2017-09-16T06:34:16.012Z,84.74
2017-09-16T06:34:56.584Z,84.69
2017-09-16T06:35:37.138Z,84.26
2017-09-16T06:36:17.710Z,84.36
2017-09-16T06:36:58.270Z,84.07
2017-09-16T06:37:38.825Z,84.55
2017-09-16T06:38:19.402Z,84.26
2017-09-16T06:38:59.967Z,84.36
2017-09-16T06:39:40.518Z,84.64
2017-09-16T06:40:21.071Z,84.45
2017-09-16T06:41:01.711Z,84.83
2017-09-16T06:41:42.274Z,84.92
2017-09-16T06:42:22.818Z,84.92
2017-09-16T06:43:03.405Z,85.02
2017-09-16T06:43:43.979Z,85.02
2017-09-16T06:44:24.529Z,84.36
2017-09-16T06:45:05.087Z,84.74
2017-09-16T06:45:45.629Z,84.92
2017-09-16T06:46:26.208Z,84.55
2017-09-16T06:47:06.773Z,84.64
2017-09-16T06:47:47.333Z,84.74
2017-09-16T06:48:27.901Z,84.36
2017-09-16T06:49:08.458Z,84.26
2017-09-16T06:49:49.020Z,84.55
2017-09-16T06:50:29.595Z,84.55
2017-09-16T06:51:10.163Z,84.74
2017-09-16T06:51:50.726Z,84.55
2017-09-16T06:52:31.293Z,84.36
2017-09-16T06:53:11.856Z,84.55
2017-09-16T06:53:52.423Z,84.36
2017-09-16T06:54:32.986Z,83.92
2017-09-16T06:55:13.557Z,84.07
2017-09-16T06:55:54.101Z,84.16
2017-09-16T06:56:34.712Z,83.97
2017-09-16T06:57:15.285Z,84.16
2017-09-16T06:57:55.835Z,83.88
2017-09-16T06:58:36.400Z,83.16
2017-09-16T06:59:16.966Z,83.54
2017-09-16T06:59:57.531Z,85.12
2017-09-16T07:00:38.098Z,87.26
2017-09-16T07:01:18.661Z,88.31
2017-09-16T07:01:59.221Z,89.07
2017-09-16T07:02:39.778Z,88.21
2017-09-16T07:03:20.351Z,88.16
2017-09-16T07:04:00.911Z,88.16
2017-09-16T07:04:41.537Z,87.97
2017-09-16T07:05:22.127Z,87.11
2017-09-16T07:06:02.683Z,86.73
2017-09-16T07:06:43.236Z,86.58
2017-09-16T07:07:23.815Z,86.1
2017-09-16T07:08:04.393Z,85.25
2017-09-16T07:08:44.963Z,84.29
2017-09-16T07:09:25.525Z,84.72
2017-09-16T07:10:06.083Z,83.95
2017-09-16T07:10:46.641Z,82.61
2017-09-16T07:11:27.204Z,81.56
2017-09-16T07:12:07.778Z,81.66
2017-09-16T07:12:48.377Z,81.32
2017-09-16T07:13:28.925Z,81.32
2017-09-16T07:14:09.476Z,80.55
2017-09-16T07:14:50.031Z,79.54
2017-09-16T07:15:30.592Z,79.25
2017-09-16T07:16:11.162Z,78.49
2017-09-16T07:16:51.731Z,77.15
2017-09-16T07:17:32.297Z,76.96
2017-09-16T07:18:12.876Z,75.95
2017-09-16T07:18:53.465Z,75.85
2017-09-16T07:19:34.009Z,75.31
2017-09-16T07:20:14.598Z,74.65
2017-09-16T07:20:55.185Z,73.3
2017-09-16T07:21:35.746Z,72.77
2017-09-16T07:22:16.303Z,72.48
2017-09-16T07:22:56.864Z,71.71
2017-09-16T07:23:37.430Z,70.79
2017-09-16T07:24:17.996Z,69.93
2017-09-16T07:24:58.586Z,69.35
2017-09-16T07:25:39.161Z,68.14
2017-09-16T07:26:19.750Z,67.95
2017-09-16T07:27:00.316Z,66.83
2017-09-16T07:27:40.887Z,65.88
2017-09-16T07:28:21.452Z,66.35
2017-09-16T07:29:02.031Z,65.62
2017-09-16T07:29:42.596Z,64.85
2017-09-16T07:30:23.159Z,64.28
2017-09-16T07:31:03.736Z,64.12
2017-09-16T07:31:44.371Z,63.45
2017-09-16T07:32:24.940Z,61.72
2017-09-16T07:33:05.501Z,61.43
2017-09-16T07:33:46.066Z,61.33
2017-09-16T07:34:26.636Z,60.6
2017-09-16T07:35:07.213Z,61.17
2017-09-16T07:35:47.777Z,60.31
2017-09-16T07:36:28.364Z,60.14
2017-09-16T07:37:08.985Z,59.66
2017-09-16T07:37:49.532Z,59.25
2017-09-16T07:38:30.099Z,59.19
2017-09-16T07:39:10.676Z,58.22
2017-09-16T07:39:51.240Z,57.84
2017-09-16T07:40:31.819Z,57.75
2017-09-16T07:41:12.389Z,57.75
2017-09-16T07:41:52.959Z,58.13
2017-09-16T07:42:33.538Z,57.58
2017-09-16T07:43:14.101Z,57.2
2017-09-16T07:43:54.706Z,57.1
2017-09-16T07:44:35.264Z,57.48
2017-09-16T07:45:15.826Z,56.81
2017-09-16T07:45:56.397Z,56.52
2017-09-16T07:46:36.975Z,56.33
2017-09-16T07:47:17.545Z,56.84
2017-09-16T07:47:58.115Z,55.98
2017-09-16T07:48:38.673Z,54.91
2017-09-16T07:49:19.269Z,55.4
2017-09-16T07:49:59.841Z,56.16
2017-09-16T07:50:40.405Z,54.91
2017-09-16T07:51:20.988Z,54.91
2017-09-16T07:52:01.581Z,54.72
2017-09-16T07:52:42.164Z,55.01
2017-09-16T07:53:22.745Z,55.78
2017-09-16T07:54:03.328Z,55.88
2017-09-16T07:54:43.896Z,55.59
2017-09-16T07:55:24.471Z,55.2
2017-09-16T07:56:05.037Z,55.04
2017-09-16T07:56:45.607Z,54.14
2017-09-16T07:57:26.193Z,53.38
2017-09-16T07:58:06.752Z,53.5
2017-09-16T07:58:47.320Z,53.88
2017-09-16T07:59:27.905Z,53.31
2017-09-16T08:00:08.564Z,53.31
2017-09-16T08:00:49.147Z,53.4
2017-09-16T08:01:29.713Z,53.59
2017-09-16T08:02:10.295Z,53.5
2017-09-16T08:02:50.862Z,53.02
2017-09-16T08:03:31.434Z,53.11
2017-09-16T08:04:12.004Z,53.78
2017-09-16T08:04:52.598Z,53.5
2017-09-16T08:05:33.170Z,53.5
2017-09-16T08:06:13.770Z,53.21
2017-09-16T08:06:54.362Z,53.5
2017-09-16T08:07:34.933Z,53.31
2017-09-16T08:08:15.497Z,53.59
2017-09-16T08:08:56.080Z,54.17
2017-09-16T08:09:36.661Z,54.94
2017-09-16T08:10:17.221Z,55.11
2017-09-16T08:10:57.802Z,55.68
2017-09-16T08:11:38.387Z,56.07
2017-09-16T08:12:18.940Z,56.16
2017-09-16T08:12:59.650Z,56.36
2017-09-16T08:13:40.223Z,56.36
2017-09-16T08:14:20.798Z,56.43
2017-09-16T08:15:01.390Z,55.46
2017-09-16T08:15:41.974Z,55.46
2017-09-16T08:16:22.549Z,56.04
2017-09-16T08:17:03.172Z,56.52
2017-09-16T08:17:43.750Z,58.13
2017-09-16T08:18:24.320Z,58.99
2017-09-16T08:19:04.891Z,58.32
2017-09-16T08:19:45.467Z,58.32
2017-09-16T08:20:26.041Z,58.51
2017-09-16T08:21:06.632Z,57.65
2017-09-16T08:21:47.193Z,57.26
2017-09-16T08:22:27.764Z,57.36
2017-09-16T08:23:08.352Z,57.84
2017-09-16T08:23:48.928Z,58.42
2017-09-16T08:24:29.501Z,59.09
2017-09-16T08:25:10.084Z,58.13
2017-09-16T08:25:50.662Z,58.13
2017-09-16T08:26:31.251Z,58.8
2017-09-16T08:27:11.828Z,59.57
2017-09-16T08:27:52.399Z,59.66
2017-09-16T08:28:32.969Z,59.28
2017-09-16T08:29:13.570Z,59.99
2017-09-16T08:29:54.122Z,59.41
2017-09-16T08:30:34.733Z,59.12
2017-09-16T08:31:15.286Z,58.73
2017-09-16T08:31:55.866Z,58.83
2017-09-16T08:32:36.487Z,59.5
2017-09-16T08:33:17.055Z,59.5
2017-09-16T08:33:57.661Z,59.02
2017-09-16T08:34:38.231Z,58.73
2017-09-16T08:35:18.814Z,59.02
2017-09-16T08:35:59.392Z,59.02
2017-09-16T08:36:39.967Z,58.83
2017-09-16T08:37:20.532Z,59.69
2017-09-16T08:38:01.104Z,58.83
2017-09-16T08:38:41.678Z,59.5
2017-09-16T08:39:22.243Z,59.69
2017-09-16T08:40:02.819Z,59.41
2017-09-16T08:40:43.396Z,59.31
2017-09-16T08:41:23.961Z,59.6
2017-09-16T08:42:04.528Z,59.6
2017-09-16T08:42:45.119Z,59.79
2017-09-16T08:43:25.700Z,59.69
2017-09-16T08:44:06.265Z,59.69
2017-09-16T08:44:46.859Z,59.31
2017-09-16T08:45:27.454Z,58.35
2017-09-16T08:46:08.028Z,58.54
2017-09-16T08:46:48.587Z,58.35
2017-09-16T08:47:29.161Z,58.35
2017-09-16T08:48:09.770Z,58.54
2017-09-16T08:48:50.356Z,58.54
2017-09-16T08:49:30.923Z,58.64
2017-09-16T08:50:11.494Z,58.54
2017-09-16T08:50:52.059Z,58.35
2017-09-16T08:51:32.622Z,58.35
2017-09-16T08:52:13.213Z,57.58